Time;durP1;ratioP1;P1;durP2;ratioP2;P2;SDS_P1;SDS_P2;PMS_P1;PMS_P2;Temp;Humidity;BMP_temperature;BMP_pressure;BME280_temperature;BME280_humidity;BME280_pressure;Samples;Min_cycle;Max_cycle;Signal;HPM_P1;HPM_P2
2022/06/15 00:00:53;;;;;;;3.20;1.73;;;;;;;13.64;87.66;102109.63;5069783;28;20079;-72
2022/06/15 00:03:18;;;;;;;4.05;2.00;;;;;;;13.66;87.42;102109.47;5071862;28;20027;-72
2022/06/15 00:05:44;;;;;;;1.95;1.33;;;;;;;13.57;87.08;102098.72;5068076;28;20025;-72
2022/06/15 00:08:10;;;;;;;2.65;1.55;;;;;;;13.66;86.28;102109.47;5071385;28;20067;-72
2022/06/15 00:10:37;;;;;;;3.92;1.88;;;;;;;13.66;87.43;102106.84;5070494;28;20039;-72
2022/06/15 00:13:02;;;;;;;2.20;1.50;;;;;;;13.64;86.69;102111.44;5070119;28;20063;-74
2022/06/15 00:15:28;;;;;;;2.63;1.75;;;;;;;13.61;86.71;102109.91;5068220;28;20060;-72
2022/06/15 00:17:53;;;;;;;2.25;1.80;;;;;;;13.60;86.26;102107.38;5068713;28;20082;-72
2022/06/15 00:20:19;;;;;;;4.93;1.65;;;;;;;13.50;86.38;102097.59;5085524;28;20389;-72
2022/06/15 00:22:44;;;;;;;2.83;1.58;;;;;;;13.50;85.01;102105.56;5069347;28;20032;-72
2022/06/15 00:25:10;;;;;;;2.67;1.83;;;;;;;13.49;86.36;102097.75;5070181;28;20546;-72
2022/06/15 00:27:36;;;;;;;1.90;1.38;;;;;;;13.46;86.44;102104.16;5081244;28;20044;-73
2022/06/15 00:30:03;;;;;;;2.97;1.70;;;;;;;13.37;87.66;102097.03;5070645;28;20512;-73
2022/06/15 00:32:29;;;;;;;2.63;1.42;;;;;;;13.36;87.32;102101.47;5068447;28;20047;-73
2022/06/15 00:34:54;;;;;;;7.40;1.88;;;;;;;13.34;86.71;102102.59;5051843;28;20107;-73
2022/06/15 00:37:19;;;;;;;5.03;2.20;;;;;;;13.17;87.41;102081.06;5070079;28;20456;-72
2022/06/15 00:39:45;;;;;;;3.85;1.65;;;;;;;13.27;88.81;102096.97;5050958;28;20495;-73
2022/06/15 00:42:13;;;;;;;3.22;1.80;;;;;;;13.29;89.94;102108.31;5068277;28;20560;-73
2022/06/15 00:44:40;;;;;;;6.88;2.55;;;;;;;13.24;90.83;102101.72;5069268;28;20039;-73
2022/06/15 00:47:21;;;;;;;3.45;1.60;;;;;;;13.20;89.19;102101.16;5069912;28;20028;-73
2022/06/15 00:50:03;;;;;;;2.80;2.13;;;;;;;13.12;88.69;102099.19;5070793;28;20073;-72
2022/06/15 00:52:37;;;;;;;3.72;1.98;;;;;;;13.07;88.26;102087.31;5067533;28;20029;-72
2022/06/15 00:55:12;;;;;;;4.10;1.67;;;;;;;13.06;88.08;102081.16;5069734;28;20109;-73
2022/06/15 00:57:39;;;;;;;2.05;1.02;;;;;;;13.06;88.38;102081.16;5070044;28;20032;-72
2022/06/15 01:00:06;;;;;;;3.33;1.52;;;;;;;13.03;87.91;102086.75;5068593;28;20047;-72
2022/06/15 01:02:36;;;;;;;5.63;2.53;;;;;;;12.95;88.21;102083.94;5069532;28;20021;-72
2022/06/15 01:05:18;;;;;;;2.28;1.48;;;;;;;12.92;87.21;102086.88;5069853;28;20107;-72
2022/06/15 01:07:55;;;;;;;1.88;1.20;;;;;;;12.84;88.29;102084.88;5067383;28;20024;-72
2022/06/15 01:10:32;;;;;;;3.50;1.65;;;;;;;12.86;88.73;102090.03;5069957;28;20422;-72
2022/06/15 01:13:06;;;;;;;2.53;1.45;;;;;;;12.80;90.17;102085.28;5066746;28;20051;-72
2022/06/15 01:16:02;;;;;;;2.97;1.67;;;;;;;12.73;88.98;102088.47;5082511;28;20036;-72
2022/06/15 01:18:40;;;;;;;1.63;1.33;;;;;;;12.71;90.25;102086.91;5067214;28;20404;-72
2022/06/15 01:21:06;;;;;;;2.88;2.22;;;;;;;12.64;91.29;102086.63;5083583;28;20487;-73
2022/06/15 01:23:55;;;;;;;2.83;1.67;;;;;;;12.61;93.15;102086.03;5066665;28;20029;-73
2022/06/15 01:26:49;;;;;;;2.10;1.55;;;;;;;12.55;93.42;102092.72;5084704;28;20037;-73
2022/06/15 01:29:35;;;;;;;4.63;1.92;;;;;;;12.52;94.22;102085.03;5085538;28;20103;-73
2022/06/15 01:32:09;;;;;;;2.33;1.65;;;;;;;12.40;94.71;102070.22;5084127;28;20025;-73
2022/06/15 01:34:45;;;;;;;2.35;1.90;;;;;;;12.38;95.71;102078.28;5066252;28;20090;-73
2022/06/15 01:37:49;;;;;;;3.72;1.85;;;;;;;12.41;96.60;102083.31;5068151;28;20408;-73
2022/06/15 01:40:18;;;;;;;1.48;1.05;;;;;;;12.43;96.43;102084.00;5006975;28;20034;-73
2022/06/15 01:42:53;;;;;;;6.68;2.22;;;;;;;12.43;97.08;102077.88;5004301;28;20030;-73
2022/06/15 01:45:21;;;;;;;3.17;2.42;;;;;;;12.33;97.72;102081.31;5007670;28;20426;-73
2022/06/15 01:47:50;;;;;;;2.03;1.30;;;;;;;12.32;98.20;102081.44;5007514;28;20116;-73
2022/06/15 01:50:21;;;;;;;4.40;1.65;;;;;;;12.20;96.90;102054.22;5006317;28;20042;-72
2022/06/15 01:52:56;;;;;;;1.85;1.13;;;;;;;12.30;96.64;102065.72;5006139;28;20622;-74
2022/06/15 01:55:35;;;;;;;3.47;1.63;;;;;;;12.29;96.51;102071.97;5008731;28;20025;-73
2022/06/15 01:58:06;;;;;;;2.05;1.45;;;;;;;12.27;96.46;102065.97;4990453;28;20041;-74
2022/06/15 02:00:32;;;;;;;4.18;1.42;;;;;;;12.25;95.70;102067.06;4988212;28;20169;-73
2022/06/15 02:03:12;;;;;;;2.75;1.52;;;;;;;12.25;95.81;102067.91;5006163;28;20091;-72
2022/06/15 02:05:44;;;;;;;2.95;1.65;;;;;;;12.22;98.00;102062.88;5003711;28;20528;-72
2022/06/15 02:08:36;;;;;;;2.25;2.03;;;;;;;12.12;95.89;102057.50;5004153;28;20025;-72
2022/06/15 02:11:13;;;;;;;1.42;1.33;;;;;;;12.17;96.63;102059.75;5035813;28;20086;-72
2022/06/15 02:13:52;;;;;;;3.03;1.55;;;;;;;12.17;95.10;102065.06;5064792;28;20024;-72
2022/06/15 02:16:26;;;;;;;3.53;1.33;;;;;;;12.14;94.73;102060.88;5068238;28;21164;-73
2022/06/15 02:18:52;;;;;;;1.67;1.40;;;;;;;12.05;96.09;102045.78;5069547;28;20024;-72
2022/06/15 02:21:20;;;;;;;1.80;1.35;;;;;;;12.13;96.69;102063.66;5068354;28;20020;-72
2022/06/15 02:23:51;;;;;;;4.53;1.90;;;;;;;12.12;96.16;102060.16;5068432;28;20901;-72
2022/06/15 02:26:18;;;;;;;5.05;1.67;;;;;;;12.08;95.77;102061.38;5065367;28;20547;-74
2022/06/15 02:28:51;;;;;;;1.50;1.23;;;;;;;12.01;95.40;102054.13;5068837;28;20029;-74
2022/06/15 02:31:16;;;;;;;3.25;1.60;;;;;;;11.98;94.61;102039.34;5066832;28;20268;-72
2022/06/15 02:33:48;;;;;;;1.88;1.30;;;;;;;12.05;93.93;102061.66;5033701;28;20029;-72
2022/06/15 02:36:14;;;;;;;1.40;1.17;;;;;;;12.02;92.01;102050.47;5066079;28;20027;-72
2022/06/15 02:38:42;;;;;;;7.78;1.20;;;;;;;12.02;91.97;102061.06;5068845;28;20452;-72
2022/06/15 02:41:08;;;;;;;3.13;1.73;;;;;;;11.98;91.65;102046.44;5067375;28;20029;-74
2022/06/15 02:43:35;;;;;;;1.10;1.00;;;;;;;12.06;91.00;102062.50;5067424;28;20028;-74
2022/06/15 02:46:02;;;;;;;0.88;0.73;;;;;;;12.09;91.40;102052.50;5066729;28;20032;-72
2022/06/15 02:48:28;;;;;;;3.83;1.80;;;;;;;12.09;91.13;102052.50;5067956;28;20123;-72
2022/06/15 02:51:23;;;;;;;3.78;1.58;;;;;;;12.21;91.25;102057.69;5070786;28;20040;-72
2022/06/15 02:53:51;;;;;;;1.48;0.85;;;;;;;12.17;90.14;102043.88;5070825;28;20491;-73
2022/06/15 02:56:19;;;;;;;2.00;1.27;;;;;;;12.31;90.89;102055.97;5069842;28;20085;-73
2022/06/15 02:58:47;;;;;;;1.77;1.48;;;;;;;12.24;90.75;102034.47;5072777;28;20059;-72
2022/06/15 03:01:13;;;;;;;6.10;2.33;;;;;;;12.26;90.28;102027.25;5071216;28;20480;-72
2022/06/15 03:03:39;;;;;;;2.92;1.15;;;;;;;12.45;90.55;102057.41;5036627;28;20024;-72
2022/06/15 03:06:13;;;;;;;1.48;0.90;;;;;;;12.40;92.35;102041.09;5071822;28;20028;-72
2022/06/15 03:08:39;;;;;;;1.85;1.40;;;;;;;12.49;91.92;102043.75;5070322;28;20507;-73
2022/06/15 03:11:04;;;;;;;1.52;0.98;;;;;;;12.58;92.06;102047.41;5071855;28;20020;-72
2022/06/15 03:13:30;;;;;;;1.08;0.68;;;;;;;12.66;92.82;102046.75;5071686;28;20518;-72
2022/06/15 03:16:00;;;;;;;3.05;1.70;;;;;;;12.67;92.39;102046.63;5070133;28;20048;-72
2022/06/15 03:18:27;;;;;;;4.65;1.13;;;;;;;12.75;92.23;102048.59;5071901;28;20032;-74
2022/06/15 03:20:57;;;;;;;1.60;1.05;;;;;;;12.81;90.94;102047.22;5071354;28;20028;-74
2022/06/15 03:23:23;;;;;;;4.53;1.23;;;;;;;12.84;89.48;102045.13;5071854;28;20073;-74
2022/06/15 03:25:58;;;;;;;0.90;0.70;;;;;;;12.87;90.19;102046.66;5071003;28;20483;-74
2022/06/15 03:28:24;;;;;;;1.73;1.10;;;;;;;12.88;90.98;102043.06;5069859;28;20383;-72
2022/06/15 03:30:50;;;;;;;1.42;0.88;;;;;;;12.87;92.58;102046.66;5070460;28;20524;-74
2022/06/15 03:33:15;;;;;;;1.35;0.80;;;;;;;12.88;92.61;102048.34;5069354;28;20096;-74
2022/06/15 03:35:42;;;;;;;1.33;1.10;;;;;;;12.88;91.98;102037.75;5070933;28;20032;-72
2022/06/15 03:38:08;;;;;;;1.02;0.82;;;;;;;12.99;91.87;102050.88;5071687;28;20027;-73
2022/06/15 03:40:35;;;;;;;1.67;1.25;;;;;;;12.90;91.56;102033.16;5071994;28;20488;-72
2022/06/15 03:43:01;;;;;;;3.13;1.63;;;;;;;13.01;91.88;102043.66;5070945;28;20025;-74
2022/06/15 03:45:27;;;;;;;2.28;1.30;;;;;;;13.03;92.07;102049.66;5071470;28;20870;-74
2022/06/15 03:47:55;;;;;;;2.63;1.13;;;;;;;13.09;92.06;102040.31;5072780;28;20103;-72
2022/06/15 03:50:23;;;;;;;1.98;1.38;;;;;;;13.05;90.64;102031.78;5071403;28;20485;-72
2022/06/15 03:52:49;;;;;;;1.08;0.82;;;;;;;13.22;89.73;102042.69;5071487;28;20096;-72
2022/06/15 03:55:14;;;;;;;1.23;1.00;;;;;;;13.15;88.57;102015.91;5069195;28;20101;-72
2022/06/15 03:57:39;;;;;;;1.25;0.93;;;;;;;13.34;89.74;102036.31;5052830;28;20032;-73
2022/06/15 04:00:07;;;;;;;4.07;1.30;;;;;;;13.38;89.07;102043.84;5069745;28;20049;-74
2022/06/15 04:02:33;;;;;;;3.38;1.02;;;;;;;13.42;88.72;102044.41;5071246;28;20366;-73
2022/06/15 04:04:58;;;;;;;2.28;1.15;;;;;;;13.47;87.96;102044.84;5070187;28;20108;-73
2022/06/15 04:10:10;;;;;;;2.58;1.00;;;;;;;13.52;86.72;102034.66;5069923;28;20555;-72
2022/06/15 04:12:36;;;;;;;1.48;1.08;;;;;;;13.54;85.96;102040.66;5070343;28;20028;-72
2022/06/15 04:15:01;;;;;;;1.90;1.30;;;;;;;13.56;87.14;102040.50;5070291;28;20048;-73
2022/06/15 04:17:26;;;;;;;2.42;1.50;;;;;;;13.54;88.92;102045.97;5071296;28;20379;-73
2022/06/15 04:22:36;;;;;;;2.75;1.45;;;;;;;13.27;93.07;102019.25;5070802;28;20056;-72
2022/06/15 04:25:02;;;;;;;3.83;1.92;;;;;;;13.15;93.78;102023.84;5034482;28;20126;-74
2022/06/15 04:27:27;;;;;;;1.88;1.15;;;;;;;13.23;94.65;102033.78;5070772;28;20608;-72
2022/06/15 04:29:52;;;;;;;2.25;1.17;;;;;;;13.25;92.63;102042.44;5052876;28;20032;-72
2022/06/15 04:32:18;;;;;;;4.22;1.17;;;;;;;13.28;89.95;102045.69;5071472;28;20059;-72
2022/06/15 04:34:43;;;;;;;2.85;1.17;;;;;;;13.31;91.29;102049.88;5068946;28;20036;-72
2022/06/15 04:37:08;;;;;;;4.80;1.08;;;;;;;13.31;92.28;102060.47;5070109;28;20037;-73
2022/06/15 04:39:34;;;;;;;3.38;1.52;;;;;;;13.34;93.61;102061.00;5086317;28;20031;-72
2022/06/15 04:41:59;;;;;;;2.75;1.85;;;;;;;13.36;94.34;102056.41;5068643;28;20059;-74
2022/06/15 04:44:24;;;;;;;1.67;1.02;;;;;;;13.41;94.51;102061.28;5069431;28;20392;-72
2022/06/15 04:46:50;;;;;;;2.40;1.10;;;;;;;13.47;94.56;102065.22;5069087;28;20507;-73
2022/06/15 04:49:16;;;;;;;2.95;1.52;;;;;;;13.53;92.71;102060.19;5070788;28;20098;-72
2022/06/15 04:51:42;;;;;;;3.45;1.50;;;;;;;13.57;92.06;102064.25;5050288;28;20028;-72
2022/06/15 04:54:09;;;;;;;1.60;1.08;;;;;;;13.64;92.16;102071.66;5065118;28;20035;-73
2022/06/15 04:56:36;;;;;;;3.63;1.15;;;;;;;13.73;92.27;102070.78;5062867;28;20068;-73
2022/06/15 04:59:02;;;;;;;2.58;1.55;;;;;;;13.72;93.41;102077.09;5067240;28;20052;-73
2022/06/15 05:01:27;;;;;;;2.25;1.05;;;;;;;13.73;93.80;102076.09;5066535;28;20048;-73
2022/06/15 05:03:53;;;;;;;2.35;1.40;;;;;;;13.77;92.95;102067.72;5065252;28;20036;-73
2022/06/15 05:06:21;;;;;;;1.90;1.13;;;;;;;13.86;91.89;102076.66;5046485;28;20059;-73
2022/06/15 05:08:47;;;;;;;3.15;1.35;;;;;;;13.92;90.83;102080.56;5066857;28;20035;-73
2022/06/15 05:11:12;;;;;;;4.47;1.15;;;;;;;13.96;89.07;102074.00;5066758;28;20336;-73
2022/06/15 05:13:37;;;;;;;2.20;1.13;;;;;;;14.01;88.22;102079.69;5066838;28;20119;-73
2022/06/15 05:16:03;;;;;;;3.53;1.98;;;;;;;14.06;89.53;102076.63;5064725;28;20392;-72
2022/06/15 05:18:28;;;;;;;1.92;1.23;;;;;;;14.08;89.10;102077.31;5066832;28;20025;-72
2022/06/15 05:20:54;;;;;;;1.63;1.33;;;;;;;14.17;89.12;102073.78;5064807;28;20032;-72
2022/06/15 05:23:19;;;;;;;1.75;1.25;;;;;;;14.20;90.61;102081.50;5065673;28;20544;-73
2022/06/15 05:25:45;;;;;;;2.10;0.93;;;;;;;14.24;90.08;102074.06;5064834;28;20563;-72
2022/06/15 05:28:12;;;;;;;3.28;1.42;;;;;;;14.22;91.17;102060.94;5066391;28;20024;-74
2022/06/15 05:30:38;;;;;;;3.72;1.73;;;;;;;14.29;91.22;102051.41;5049066;28;20033;-72
2022/06/15 05:33:03;;;;;;;1.58;1.30;;;;;;;14.49;89.56;102073.41;5067189;28;20025;-73
2022/06/15 05:35:29;;;;;;;3.42;1.88;;;;;;;14.60;89.07;102078.56;5065419;28;20124;-73
2022/06/15 05:37:54;;;;;;;5.97;1.52;;;;;;;14.72;88.03;102076.56;5066574;28;20451;-72
2022/06/15 05:40:19;;;;;;;1.80;0.90;;;;;;;14.85;87.01;102081.56;5064510;28;20036;-72
2022/06/15 05:42:45;;;;;;;1.88;1.13;;;;;;;15.03;86.70;102076.28;5061782;28;20033;-73
2022/06/15 05:45:10;;;;;;;1.50;0.80;;;;;;;15.20;86.19;102074.63;5063964;28;20154;-73
2022/06/15 05:47:36;;;;;;;2.65;1.20;;;;;;;15.31;87.54;102063.75;5063760;28;20388;-73
2022/06/15 05:50:02;;;;;;;3.70;1.20;;;;;;;15.38;86.45;102064.00;5045477;28;20211;-73
2022/06/15 05:52:27;;;;;;;3.55;1.58;;;;;;;15.47;86.75;102081.69;5064572;28;20043;-73
2022/06/15 05:54:53;;;;;;;5.15;1.63;;;;;;;15.57;88.03;102073.63;5062804;28;20071;-73
2022/06/15 05:57:21;;;;;;;3.55;1.60;;;;;;;15.87;88.19;102082.22;5079144;28;20506;-73
2022/06/15 05:59:48;;;;;;;3.72;1.60;;;;;;;16.15;89.05;102078.44;5064205;28;20067;-73
2022/06/15 06:02:15;;;;;;;1.98;1.38;;;;;;;16.40;88.26;102086.59;5046252;28;20043;-74
2022/06/15 06:04:41;;;;;;;1.52;1.08;;;;;;;16.52;88.02;102073.81;5063486;28;20622;-73
2022/06/15 06:07:06;;;;;;;2.85;1.70;;;;;;;16.78;88.21;102089.75;5059883;28;20063;-73
2022/06/15 06:09:32;;;;;;;1.77;1.27;;;;;;;16.91;86.45;102090.16;5064269;28;20028;-73
2022/06/15 06:11:57;;;;;;;2.67;1.77;;;;;;;16.82;83.77;102075.97;5062663;28;20081;-73
2022/06/15 06:14:23;;;;;;;1.77;1.17;;;;;;;16.91;83.04;102084.84;5079813;28;20033;-73
2022/06/15 06:16:48;;;;;;;1.48;1.15;;;;;;;17.15;84.22;102085.91;5062608;28;20028;-73
2022/06/15 06:19:13;;;;;;;1.48;1.10;;;;;;;17.18;83.95;102083.75;5063039;28;20255;-73
2022/06/15 06:21:39;;;;;;;5.47;1.50;;;;;;;17.31;83.53;102069.09;5063689;28;20052;-73
2022/06/15 06:24:05;;;;;;;4.72;1.63;;;;;;;17.57;84.30;102085.81;5065970;28;20076;-73
2022/06/15 06:26:31;;;;;;;5.10;1.20;;;;;;;17.70;83.39;102074.63;5082085;28;20036;-73
2022/06/15 06:28:58;;;;;;;1.55;1.10;;;;;;;17.67;82.69;102075.78;5069199;28;20377;-72
2022/06/15 06:31:24;;;;;;;1.90;1.02;;;;;;;17.67;81.28;102072.28;5065356;28;20409;-72
2022/06/15 06:33:50;;;;;;;5.88;1.13;;;;;;;17.73;81.56;102073.47;5047354;28;20059;-73
2022/06/15 06:36:17;;;;;;;1.75;0.80;;;;;;;17.83;80.69;102080.34;5065102;28;20444;-73
2022/06/15 06:38:43;;;;;;;2.22;1.27;;;;;;;17.92;80.96;102089.19;5066104;28;20099;-74
2022/06/15 06:41:10;;;;;;;1.13;0.60;;;;;;;18.15;79.49;102088.47;5065923;28;20123;-74
2022/06/15 06:43:35;;;;;;;2.00;1.10;;;;;;;18.15;78.72;102083.13;5064547;28;20111;-74
2022/06/15 06:46:00;;;;;;;2.60;1.00;;;;;;;18.21;79.51;102095.81;5048000;28;20686;-72
2022/06/15 06:48:26;;;;;;;3.75;1.00;;;;;;;18.39;78.54;102087.59;5066026;28;20097;-73
2022/06/15 06:50:52;;;;;;;1.90;1.00;;;;;;;18.44;76.61;102094.09;5066291;28;20020;-73
2022/06/15 06:53:17;;;;;;;2.33;1.25;;;;;;;18.47;77.10;102099.09;5081319;28;20032;-72
2022/06/15 06:55:44;;;;;;;4.03;1.65;;;;;;;18.74;77.51;102090.81;5065248;28;20502;-72
2022/06/15 06:58:09;;;;;;;5.35;1.10;;;;;;;18.94;76.45;102088.56;5048544;28;20056;-71
2022/06/15 07:00:36;;;;;;;2.35;1.10;;;;;;;19.14;75.32;102105.00;5063499;28;21079;-71
2022/06/15 07:03:04;;;;;;;9.13;1.27;;;;;;;19.50;73.86;102099.94;5067884;28;20979;-72
2022/06/15 07:05:32;;;;;;;3.10;0.88;;;;;;;19.61;73.58;102107.53;5062645;28;20102;-72
2022/06/15 07:07:58;;;;;;;2.30;1.15;;;;;;;19.79;72.69;102106.44;5065340;28;20028;-72
2022/06/15 07:10:26;;;;;;;1.58;1.05;;;;;;;19.71;71.52;102116.22;5063106;28;20750;-72
2022/06/15 07:12:51;;;;;;;1.60;0.95;;;;;;;19.63;71.24;102118.91;5065595;28;20100;-73
2022/06/15 07:15:16;;;;;;;2.00;1.02;;;;;;;19.56;70.43;102104.59;5066059;28;20599;-72
2022/06/15 07:17:42;;;;;;;2.25;1.40;;;;;;;19.76;71.48;102122.88;5064565;28;20033;-72
2022/06/15 07:20:08;;;;;;;3.13;1.10;;;;;;;19.75;69.91;102121.19;5062411;28;20602;-72
2022/06/15 07:22:35;;;;;;;1.60;0.95;;;;;;;19.78;70.35;102124.38;5066042;28;20051;-71
2022/06/15 07:25:01;;;;;;;1.80;1.17;;;;;;;19.73;71.18;102119.53;5064748;28;20032;-71
2022/06/15 07:27:26;;;;;;;2.35;1.17;;;;;;;20.79;71.63;102126.72;5079240;28;20074;-71
2022/06/15 07:29:53;;;;;;;0.95;0.57;;;;;;;21.23;65.56;102126.66;5065457;28;20028;-72
2022/06/15 07:32:19;;;;;;;1.98;0.73;;;;;;;21.93;64.18;102124.25;5064387;28;20044;-71
2022/06/15 07:34:45;;;;;;;1.80;0.85;;;;;;;22.53;62.19;102133.56;5064999;28;20052;-73
2022/06/15 07:37:10;;;;;;;1.27;0.77;;;;;;;22.51;62.20;102132.13;5063824;28;20034;-73
2022/06/15 07:39:37;;;;;;;2.95;0.90;;;;;;;21.92;62.83;102133.31;5065909;28;20162;-73
2022/06/15 07:42:08;;;;;;;3.50;1.00;;;;;;;21.52;60.72;102132.97;5079886;28;20025;-73
2022/06/15 07:44:34;;;;;;;2.90;0.65;;;;;;;21.81;60.68;102131.16;5065039;28;20043;-72
2022/06/15 07:49:59;;;;;;;1.77;0.65;;;;;;;21.78;60.93;102137.75;5064952;28;20059;-73
2022/06/15 07:52:30;;;;;;;1.90;0.75;;;;;;;21.84;60.83;102136.16;5067240;28;20107;-72
2022/06/15 07:54:56;;;;;;;;;;;;;;;21.03;61.48;102134.44;5064722;28;20036;-72
2022/06/15 07:57:22;;;;;;;1.17;0.60;;;;;;;20.66;63.16;102130.06;5064457;28;19916;-72
2022/06/15 07:59:48;;;;;;;2.83;0.60;;;;;;;21.94;60.38;102125.91;5054137;28;20068;-72
2022/06/15 08:02:14;;;;;;;0.50;0.28;;;;;;;23.04;58.07;102131.56;5027315;28;20025;-72
2022/06/15 08:04:39;;;;;;;3.33;0.90;;;;;;;22.68;57.03;102143.41;5047154;28;20336;-73
2022/06/15 08:07:07;;;;;;;3.28;0.90;;;;;;;22.42;57.30;102139.50;5025814;28;20033;-73
2022/06/15 08:09:32;;;;;;;2.03;0.50;;;;;;;22.54;57.13;102132.56;5045955;28;20049;-73
2022/06/15 08:12:19;;;;;;;2.70;0.60;;;;;;;22.26;58.52;102139.84;5046450;28;20025;-73
2022/06/15 08:14:54;;;;;;;2.75;0.98;;;;;;;22.04;58.18;102147.91;5029136;28;20082;-72
2022/06/15 08:17:37;;;;;;;1.00;0.60;;;;;;;22.10;58.22;102147.13;5045096;28;20024;-72
2022/06/15 08:20:09;;;;;;;2.63;0.75;;;;;;;22.11;58.38;102147.97;5046545;28;20519;-72
2022/06/15 08:22:39;;;;;;;1.50;0.30;;;;;;;22.23;58.61;102134.81;5045679;28;20021;-73
2022/06/15 08:25:07;;;;;;;2.92;0.60;;;;;;;22.51;57.23;102149.09;5046973;28;20043;-73
2022/06/15 08:27:34;;;;;;;0.90;0.35;;;;;;;22.84;56.21;102144.91;5025890;28;20036;-73
2022/06/15 08:30:00;;;;;;;0.98;0.75;;;;;;;22.50;55.61;102139.34;5045784;28;20115;-72
2022/06/15 08:32:25;;;;;;;1.73;0.57;;;;;;;21.99;57.80;102128.81;5048759;28;20124;-71
2022/06/15 08:34:51;;;;;;;4.10;0.90;;;;;;;21.88;57.93;102149.00;5013347;28;20033;-73
2022/06/15 08:37:18;;;;;;;2.35;0.70;;;;;;;22.15;58.25;102133.09;5029151;28;20043;-73
2022/06/15 08:39:44;;;;;;;1.00;0.47;;;;;;;22.37;57.43;102139.28;5048248;28;20437;-73
2022/06/15 08:42:28;;;;;;;2.78;1.00;;;;;;;22.36;58.24;102137.59;5012485;28;20035;-73
2022/06/15 08:44:59;;;;;;;2.42;1.15;;;;;;;22.76;58.22;102143.22;5026417;28;20143;-72
2022/06/15 08:48:01;;;;;;;2.40;0.77;;;;;;;22.71;57.57;102137.59;5045034;28;20021;-72
2022/06/15 08:50:46;;;;;;;1.08;0.60;;;;;;;22.76;55.65;102141.38;5048421;28;20029;-72
2022/06/15 08:53:24;;;;;;;1.20;0.52;;;;;;;22.78;57.01;102133.09;5046911;28;20100;-72
2022/06/15 08:56:02;;;;;;;2.60;1.00;;;;;;;22.65;56.86;102133.03;5046002;28;20131;-73
2022/06/15 08:59:09;;;;;;;2.33;0.93;;;;;;;22.85;57.07;102128.56;5046277;28;20036;-73
2022/06/15 09:02:08;;;;;;;1.27;0.70;;;;;;;22.91;55.30;102135.84;5044971;28;20116;-72
2022/06/15 09:04:55;;;;;;;3.92;1.77;;;;;;;22.37;56.97;102131.22;5044825;28;20426;-73
2022/06/15 09:07:30;;;;;;;2.15;0.50;;;;;;;22.25;56.58;102117.47;5044450;28;20347;-73
2022/06/15 09:10:08;;;;;;;1.48;0.70;;;;;;;22.18;58.41;102130.84;5043942;28;20078;-73
2022/06/15 09:12:58;;;;;;;2.45;0.95;;;;;;;23.88;54.64;102122.22;5041530;28;20040;-73
2022/06/15 09:15:42;;;;;;;;;;;;;;;24.80;52.95;102115.81;5043624;28;20029;-73
2022/06/15 09:18:25;;;;;;;0.82;0.60;;;;;;;24.03;52.28;102120.13;5043112;28;19959;-73
2022/06/15 09:21:00;;;;;;;1.67;0.47;;;;;;;25.02;52.36;102131.69;5043578;28;20052;-73
2022/06/15 09:23:40;;;;;;;1.85;0.60;;;;;;;25.26;51.48;102130.19;5022229;28;20024;-73
2022/06/15 09:26:11;;;;;;;0.90;0.50;;;;;;;27.16;48.28;102112.50;5023890;28;20415;-73
2022/06/15 09:28:44;;;;;;;2.15;0.77;;;;;;;27.58;46.75;102122.53;5043086;28;20040;-72
2022/06/15 09:31:16;;;;;;;1.25;0.50;;;;;;;27.38;46.57;102136.41;5043698;28;20530;-72
2022/06/15 09:33:47;;;;;;;2.13;0.77;;;;;;;28.66;46.00;102132.13;5044377;28;20021;-73
2022/06/15 09:36:19;;;;;;;4.93;0.82;;;;;;;28.13;45.95;102121.41;5025324;28;20535;-73
2022/06/15 09:38:44;;;;;;;1.67;0.80;;;;;;;28.98;44.14;102128.91;5010219;28;20029;-73
2022/06/15 09:41:21;;;;;;;3.08;0.80;;;;;;;28.91;45.40;102123.63;5043652;28;20052;-73
2022/06/15 09:44:00;;;;;;;1.25;0.50;;;;;;;28.76;44.57;102126.03;5025599;28;20041;-73
2022/06/15 09:46:44;;;;;;;1.33;0.53;;;;;;;28.31;45.09;102129.44;5046675;28;20021;-73
2022/06/15 09:49:21;;;;;;;2.65;0.60;;;;;;;28.52;44.41;102128.81;5029325;28;20033;-73
2022/06/15 09:51:59;;;;;;;1.08;0.65;;;;;;;27.72;45.44;102132.13;5047119;28;20123;-73
2022/06/15 09:54:40;;;;;;;0.80;0.52;;;;;;;27.93;47.04;102116.34;5046316;28;20020;-73
2022/06/15 09:57:05;;;;;;;1.70;0.50;;;;;;;28.46;44.03;102120.78;5044824;28;20029;-73
2022/06/15 09:59:33;;;;;;;1.60;0.65;;;;;;;26.27;46.55;102104.81;5045042;28;20053;-73
2022/06/15 10:02:02;;;;;;;1.67;0.60;;;;;;;26.07;49.35;102117.72;5046707;28;20033;-73
2022/06/15 10:04:30;;;;;;;2.63;1.13;;;;;;;25.73;50.00;102114.44;5028246;28;20029;-73
2022/06/15 10:07:00;;;;;;;1.88;0.60;;;;;;;25.59;49.49;102096.69;5046089;28;20021;-73
2022/06/15 10:09:28;;;;;;;1.75;0.80;;;;;;;25.50;49.40;102106.09;5045878;28;20017;-73
2022/06/15 10:12:55;;;;;;;1.35;0.70;;;;;;;24.94;51.64;102111.19;5046251;28;20021;-73
2022/06/15 10:14:43;;;;;;;1.67;0.63;;;;;;;25.05;51.91;102113.19;5044998;28;20083;-73
2022/06/15 10:17:24;;;;;;;1.10;0.65;;;;;;;25.46;49.11;102103.00;5046333;28;20056;-73
2022/06/15 10:19:53;;;;;;;3.17;1.05;;;;;;;25.11;50.52;102094.47;5043397;28;20021;-73
2022/06/15 10:22:42;;;;;;;1.70;1.10;;;;;;;24.72;51.13;102088.25;5038141;28;20026;-73
2022/06/15 10:25:17;;;;;;;1.65;0.82;;;;;;;24.80;50.64;102096.06;5039773;28;20335;-73
2022/06/15 10:27:43;;;;;;;3.15;0.80;;;;;;;24.42;51.02;102094.13;5042404;28;20033;-73
2022/06/15 10:30:16;;;;;;;4.50;0.85;;;;;;;24.56;51.33;102094.94;5041803;28;20035;-73
2022/06/15 10:33:22;;;;;;;1.63;0.90;;;;;;;24.99;49.57;102097.84;5040653;28;20768;-72
2022/06/15 10:35:57;;;;;;;1.50;0.70;;;;;;;25.08;50.22;102093.03;5040419;28;20048;-72
2022/06/15 10:38:24;;;;;;;2.28;0.88;;;;;;;25.14;50.46;102091.34;5042363;28;20056;-73
2022/06/15 10:41:45;;;;;;;1.98;1.17;;;;;;;24.87;50.79;102094.19;5041582;28;20036;-73
2022/06/15 10:43:49;;;;;;;2.83;0.80;;;;;;;24.84;51.77;102084.63;5041677;28;20128;-73
2022/06/15 10:46:16;;;;;;;2.55;0.82;;;;;;;24.89;51.63;102084.00;5042049;28;20115;-73
2022/06/15 10:48:44;;;;;;;1.40;0.95;;;;;;;25.18;49.07;102079.06;5041863;28;20548;-73
2022/06/15 10:51:30;;;;;;;1.20;0.77;;;;;;;26.02;47.39;102095.91;5039748;28;20060;-73
2022/06/15 10:54:19;;;;;;;2.65;0.80;;;;;;;25.98;46.78;102083.88;5023192;28;20017;-73
2022/06/15 11:02:41;;;;;;;1.92;0.80;;;;;;;26.30;43.56;102086.47;5040978;28;20094;-73
2022/06/15 11:05:09;;;;;;;1.08;0.60;;;;;;;25.99;44.30;102082.84;5039231;28;20035;-73
2022/06/15 11:07:44;;;;;;;2.65;1.00;;;;;;;26.04;42.12;102081.13;5040591;28;20156;-73
2022/06/15 11:10:21;;;;;;;2.25;1.20;;;;;;;26.76;42.87;102090.53;5042489;28;20476;-73
2022/06/15 11:12:57;;;;;;;2.38;1.02;;;;;;;28.22;41.81;102087.41;5026437;28;20037;-72
2022/06/15 11:18:28;;;;;;;4.05;1.15;;;;;;;28.33;41.35;102069.47;5045458;28;20059;-73
2022/06/15 11:21:01;;;;;;;2.63;1.23;;;;;;;28.01;42.22;102072.59;5023887;28;20029;-73
2022/06/15 11:23:49;;;;;;;4.43;0.93;;;;;;;27.47;43.58;102078.88;5043183;28;20025;-73
2022/06/15 11:29:36;;;;;;;2.75;0.93;;;;;;;26.76;43.32;102058.03;5042516;28;20497;-73
2022/06/15 11:32:23;;;;;;;1.38;0.88;;;;;;;26.89;43.39;102068.69;5043708;28;20109;-73
2022/06/15 11:35:10;;;;;;;1.67;0.90;;;;;;;26.80;43.37;102070.06;5045908;28;20033;-73
2022/06/15 11:38:04;;;;;;;2.17;1.13;;;;;;;26.16;44.52;102058.75;5045516;28;20098;-73
2022/06/15 11:40:53;;;;;;;6.47;0.80;;;;;;;26.22;45.98;102071.38;5043308;28;20043;-73
2022/06/15 11:43:34;;;;;;;1.85;0.88;;;;;;;27.35;42.73;102080.78;5044706;28;20488;-72
2022/06/15 11:46:16;;;;;;;1.60;0.75;;;;;;;28.46;41.06;102072.75;5045727;28;20059;-73
2022/06/15 11:48:48;;;;;;;1.60;1.08;;;;;;;28.97;39.86;102072.94;5027727;28;20031;-73
2022/06/15 11:51:13;;;;;;;2.45;0.90;;;;;;;28.74;41.05;102073.03;5042458;28;20032;-73
2022/06/15 11:54:07;;;;;;;1.73;0.90;;;;;;;29.79;39.03;102077.06;5046015;28;21039;-73
2022/06/15 11:56:51;;;;;;;3.40;0.90;;;;;;;30.19;39.80;102075.97;5042709;28;20354;-73
2022/06/15 11:59:47;;;;;;;2.85;0.98;;;;;;;30.25;38.72;102083.16;5043786;28;20057;-73
2022/06/15 12:02:37;;;;;;;1.77;0.82;;;;;;;30.81;37.94;102085.72;5041960;28;20033;-73
2022/06/15 12:05:26;;;;;;;4.72;1.25;;;;;;;31.49;37.71;102091.59;5044804;28;20047;-73